createdAt,value
2022-09-11T00:01:49.810Z,1.20
2022-09-11T00:04:20.093Z,1.20
2022-09-11T00:06:47.514Z,1.30
2022-09-11T00:09:14.906Z,1.20
2022-09-11T00:11:45.135Z,1.25
2022-09-11T00:14:14.867Z,1.33
2022-09-11T00:16:45.359Z,1.40
2022-09-11T00:19:16.653Z,1.10
2022-09-11T00:21:45.431Z,1.20
2022-09-11T00:24:13.388Z,1.33
2022-09-11T00:26:42.590Z,1.00
2022-09-11T00:29:10.771Z,1.20
2022-09-11T00:31:38.804Z,1.12
2022-09-11T00:34:07.160Z,1.30
2022-09-11T00:36:36.388Z,1.20
2022-09-11T00:39:06.918Z,1.20
2022-09-11T00:41:38.265Z,1.20
2022-09-11T00:44:18.002Z,1.30
2022-09-11T00:46:55.616Z,1.20
2022-09-11T00:49:42.136Z,1.20
2022-09-11T00:52:13.669Z,1.23
2022-09-11T00:54:45.211Z,1.30
2022-09-11T00:57:17.003Z,1.30
2022-09-11T00:59:45.208Z,1.30
2022-09-11T01:02:22.298Z,1.20
2022-09-11T01:04:54.739Z,1.30
2022-09-11T01:07:23.722Z,1.45
2022-09-11T01:09:51.374Z,1.40
2022-09-11T01:12:31.486Z,1.20
2022-09-11T01:15:03.779Z,1.20
2022-09-11T01:18:06.329Z,1.30
2022-09-11T01:20:59.823Z,1.20
2022-09-11T01:23:27.562Z,1.30
2022-09-11T01:26:23.943Z,1.30
2022-09-11T01:29:20.415Z,1.40
2022-09-11T01:31:54.329Z,1.30
2022-09-11T01:34:35.669Z,1.30
2022-09-11T01:37:06.997Z,1.30
2022-09-11T01:39:39.098Z,1.10
2022-09-11T01:42:14.796Z,1.10
2022-09-11T01:44:54.854Z,1.17
2022-09-11T01:47:28.527Z,1.20
2022-09-11T01:50:04.306Z,1.10
2022-09-11T01:52:53.245Z,1.10
2022-09-11T01:55:24.154Z,1.15
2022-09-11T01:58:06.618Z,1.20
2022-09-11T02:00:36.597Z,1.00
2022-09-11T02:03:09.709Z,1.00
2022-09-11T02:05:43.917Z,1.13
2022-09-11T02:08:20.245Z,1.02
2022-09-11T02:10:56.579Z,1.10
2022-09-11T02:13:27.864Z,1.20
2022-09-11T02:16:09.658Z,1.20
2022-09-11T02:18:50.738Z,1.10
2022-09-11T02:21:21.175Z,1.00
2022-09-11T02:23:51.352Z,1.25
2022-09-11T02:26:24.360Z,1.00
2022-09-11T02:28:54.840Z,1.10
2022-09-11T02:31:23.701Z,1.10
2022-09-11T02:33:51.433Z,1.00
2022-09-11T02:36:35.771Z,1.05
2022-09-11T02:39:16.505Z,1.00
2022-09-11T02:42:24.781Z,1.02
2022-09-11T02:45:30.547Z,1.08
2022-09-11T02:47:58.049Z,1.10
2022-09-11T02:50:53.563Z,1.05
2022-09-11T02:53:44.275Z,1.17
2022-09-11T02:56:18.839Z,1.20
2022-09-11T02:58:55.953Z,1.20
2022-09-11T03:01:24.292Z,1.02
2022-09-11T03:03:51.988Z,1.00
2022-09-11T03:06:24.841Z,1.20
2022-09-11T03:08:58.051Z,1.05
2022-09-11T03:11:25.484Z,1.10
2022-09-11T03:13:54.808Z,1.10
2022-09-11T03:16:22.407Z,1.20
2022-09-11T03:18:50.501Z,1.00
2022-09-11T03:21:18.439Z,1.20
2022-09-11T03:23:45.901Z,1.10
2022-09-11T03:26:13.776Z,1.00
2022-09-11T03:28:41.504Z,1.10
2022-09-11T03:31:09.810Z,1.23
2022-09-11T03:33:37.739Z,1.20
2022-09-11T03:36:05.882Z,1.10
2022-09-11T03:38:33.306Z,1.30
2022-09-11T03:41:03.412Z,1.20
2022-09-11T03:43:33.233Z,1.10
2022-09-11T03:46:00.814Z,1.30
2022-09-11T03:48:29.365Z,1.20
2022-09-11T03:50:58.927Z,1.20
2022-09-11T03:53:27.207Z,1.10
2022-09-11T03:55:54.902Z,1.10
2022-09-11T03:58:22.862Z,1.25
2022-09-11T04:00:50.369Z,1.40
2022-09-11T04:03:18.277Z,1.30
2022-09-11T04:05:59.590Z,1.40
2022-09-11T04:08:27.775Z,1.40
2022-09-11T04:10:59.761Z,1.20
2022-09-11T04:13:32.380Z,1.50
2022-09-11T04:16:16.041Z,1.40
2022-09-11T04:18:45.987Z,2.00
2022-09-11T04:21:16.552Z,1.50
2022-09-11T04:23:48.046Z,1.60
2022-09-11T04:26:22.195Z,1.80
2022-09-11T04:28:51.180Z,1.60
2022-09-11T04:31:20.101Z,1.45
2022-09-11T04:33:48.346Z,1.73
2022-09-11T04:36:18.503Z,1.67
2022-09-11T04:38:47.284Z,2.40
2022-09-11T04:41:19.153Z,2.50
2022-09-11T04:43:47.212Z,1.60
2022-09-11T04:46:18.327Z,2.15
2022-09-11T04:48:51.744Z,2.35
2022-09-11T04:51:30.353Z,2.40
2022-09-11T04:53:59.185Z,2.00
2022-09-11T04:56:30.427Z,2.25
2022-09-11T04:59:05.762Z,2.20
2022-09-11T05:01:34.211Z,1.90
2022-09-11T05:04:02.074Z,2.40
2022-09-11T05:06:30.540Z,1.60
2022-09-11T05:09:04.590Z,1.80
2022-09-11T05:11:33.435Z,2.10
2022-09-11T05:14:01.520Z,2.28
2022-09-11T05:16:30.966Z,2.00
2022-09-11T05:18:59.444Z,1.80
2022-09-11T05:21:27.988Z,2.03
2022-09-11T05:23:57.971Z,1.80
2022-09-11T05:26:28.290Z,1.77
2022-09-11T05:28:57.423Z,1.80
2022-09-11T05:31:25.769Z,1.90
2022-09-11T05:33:56.840Z,1.87
2022-09-11T05:36:26.337Z,1.90
2022-09-11T05:38:54.194Z,1.80
2022-09-11T05:41:21.672Z,2.00
2022-09-11T05:43:49.426Z,1.90
2022-09-11T05:46:18.454Z,1.80
2022-09-11T05:48:46.508Z,1.87
2022-09-11T05:51:20.350Z,1.80
2022-09-11T05:53:54.555Z,1.80
2022-09-11T05:56:23.978Z,2.17
2022-09-11T05:58:52.024Z,1.50
2022-09-11T06:01:22.869Z,1.50
2022-09-11T06:03:54.902Z,1.30
2022-09-11T06:06:24.608Z,1.50
2022-09-11T06:08:53.798Z,1.40
2022-09-11T06:11:24.618Z,1.90
2022-09-11T06:13:52.521Z,1.80
2022-09-11T06:16:23.365Z,1.50
2022-09-11T06:18:54.513Z,1.75
2022-09-11T06:21:25.042Z,1.70
2022-09-11T06:23:54.352Z,1.48
2022-09-11T06:26:26.750Z,1.50
2022-09-11T06:28:55.187Z,2.65
2022-09-11T06:31:25.772Z,1.70
2022-09-11T06:33:54.780Z,1.50
2022-09-11T06:36:27.168Z,1.50
2022-09-11T06:39:02.441Z,1.55
2022-09-11T06:41:30.335Z,1.50
2022-09-11T06:43:58.933Z,1.30
2022-09-11T06:46:27.161Z,1.60
2022-09-11T06:48:56.001Z,1.73
2022-09-11T06:51:27.195Z,1.40
2022-09-11T06:53:59.747Z,1.50
2022-09-11T06:56:39.054Z,1.50
2022-09-11T06:59:06.688Z,1.42
2022-09-11T07:01:44.386Z,1.37
2022-09-11T07:04:12.830Z,1.30
2022-09-11T07:06:42.863Z,1.35
2022-09-11T07:09:16.824Z,1.55
2022-09-11T07:11:47.739Z,1.93
2022-09-11T07:14:21.558Z,3.85
2022-09-11T07:16:53.016Z,4.53
2022-09-11T07:19:26.048Z,1.58
2022-09-11T07:21:53.985Z,1.60
2022-09-11T07:24:31.328Z,2.05
2022-09-11T07:27:08.842Z,1.42
2022-09-11T07:29:36.904Z,1.65
2022-09-11T07:32:04.877Z,1.48
2022-09-11T07:34:33.113Z,1.53
2022-09-11T07:37:01.930Z,1.35
2022-09-11T07:39:33.148Z,1.60
2022-09-11T07:42:01.377Z,1.30
2022-09-11T07:44:32.312Z,1.30
2022-09-11T07:47:01.187Z,1.50
2022-09-11T07:49:32.746Z,1.30
2022-09-11T07:52:03.723Z,1.50
2022-09-11T07:54:36.110Z,1.50
2022-09-11T07:57:04.387Z,1.20
2022-09-11T07:59:32.889Z,1.17
2022-09-11T08:02:00.707Z,1.45
2022-09-11T08:04:29.250Z,1.33
2022-09-11T08:06:57.667Z,1.37
2022-09-11T08:09:27.639Z,1.40
2022-09-11T08:11:58.664Z,1.35
2022-09-11T08:14:29.379Z,1.37
2022-09-11T08:16:57.935Z,1.45
2022-09-11T08:19:26.772Z,1.20
2022-09-11T08:21:55.559Z,1.30
2022-09-11T08:24:27.496Z,1.30
2022-09-11T08:26:57.267Z,1.30
2022-09-11T08:29:25.638Z,1.20
2022-09-11T08:32:02.403Z,1.20
2022-09-11T08:34:31.989Z,1.10
2022-09-11T08:37:03.015Z,1.10
2022-09-11T08:39:37.531Z,1.20
2022-09-11T08:42:09.171Z,1.15
2022-09-11T08:44:45.360Z,1.10
2022-09-11T08:47:23.310Z,1.25
2022-09-11T08:49:59.245Z,1.20
2022-09-11T08:52:27.641Z,1.10
2022-09-11T08:54:58.448Z,1.20
2022-09-11T08:57:43.088Z,1.10
2022-09-11T09:00:27.821Z,1.27
2022-09-11T09:03:07.533Z,1.30
2022-09-11T09:05:51.542Z,1.10
2022-09-11T09:08:45.050Z,1.25
2022-09-11T09:11:36.416Z,1.05
2022-09-11T09:14:45.708Z,1.20
2022-09-11T09:17:42.657Z,1.20
2022-09-11T09:20:16.668Z,1.17
2022-09-11T09:22:51.988Z,1.12
2022-09-11T09:25:25.490Z,1.50
2022-09-11T09:28:01.556Z,1.20
2022-09-11T09:30:35.949Z,1.30
2022-09-11T09:33:16.103Z,1.20
2022-09-11T09:35:45.439Z,1.00
2022-09-11T09:38:18.558Z,1.10
2022-09-11T09:41:07.185Z,1.40
2022-09-11T09:43:41.508Z,1.20
2022-09-11T09:46:37.434Z,1.40
2022-09-11T09:49:05.168Z,1.20
2022-09-11T09:51:32.588Z,1.20
2022-09-11T09:54:03.217Z,1.30
2022-09-11T09:56:32.065Z,1.20
2022-09-11T09:59:14.093Z,1.20
2022-09-11T10:01:46.607Z,1.37
2022-09-11T10:04:23.810Z,1.10
2022-09-11T10:06:53.218Z,1.20
2022-09-11T10:09:26.907Z,1.20
2022-09-11T10:11:57.764Z,1.20
2022-09-11T10:14:49.914Z,1.20
2022-09-11T10:17:29.635Z,1.25
2022-09-11T10:20:23.023Z,1.27
2022-09-11T10:22:51.086Z,1.30
2022-09-11T10:25:27.301Z,1.33
2022-09-11T10:27:59.209Z,1.20
2022-09-11T10:30:30.116Z,1.40
2022-09-11T10:33:03.088Z,1.33
2022-09-11T10:35:32.263Z,1.55
2022-09-11T10:38:13.719Z,1.50
2022-09-11T10:40:45.568Z,1.25
2022-09-11T10:43:56.207Z,1.30
2022-09-11T10:46:39.214Z,1.30
2022-09-11T10:49:06.773Z,1.50
2022-09-11T10:51:47.347Z,1.45
2022-09-11T10:54:18.520Z,1.50
2022-09-11T10:57:13.411Z,1.60
2022-09-11T11:00:18.929Z,1.60
2022-09-11T11:02:52.813Z,1.50
2022-09-11T11:05:24.663Z,1.57
2022-09-11T11:08:05.360Z,1.67
2022-09-11T11:10:51.018Z,1.55
2022-09-11T11:13:45.322Z,1.60
2022-09-11T11:16:23.267Z,1.50
2022-09-11T11:18:57.070Z,1.60
2022-09-11T11:21:33.960Z,1.58
2022-09-11T11:24:17.917Z,1.60
2022-09-11T11:26:57.306Z,1.50
2022-09-11T11:30:07.034Z,1.60
2022-09-11T11:32:48.316Z,1.30
2022-09-11T11:35:24.431Z,1.20
2022-09-11T11:37:59.257Z,1.00
2022-09-11T11:41:03.211Z,1.10
2022-09-11T11:43:34.187Z,1.30
2022-09-11T11:46:05.851Z,1.30
2022-09-11T11:48:46.394Z,1.20
2022-09-11T11:51:17.869Z,1.15
2022-09-11T11:54:03.407Z,1.10
2022-09-11T11:56:38.211Z,1.12
2022-09-11T11:59:44.108Z,1.20
2022-09-11T12:02:11.772Z,1.00
2022-09-11T12:04:42.744Z,0.90
2022-09-11T12:07:23.105Z,0.90
2022-09-11T12:09:52.426Z,1.00
2022-09-11T12:12:24.300Z,0.93
2022-09-11T12:14:58.087Z,1.10
2022-09-11T12:17:29.282Z,1.00
2022-09-11T12:20:12.358Z,1.20
2022-09-11T12:22:45.145Z,1.60
2022-09-11T12:25:19.381Z,1.50
2022-09-11T12:28:06.210Z,1.77
2022-09-11T12:30:56.186Z,1.60
2022-09-11T12:33:43.396Z,1.35
2022-09-11T12:36:16.536Z,1.20
2022-09-11T12:38:49.274Z,1.10
2022-09-11T12:41:30.786Z,1.20
2022-09-11T12:43:58.224Z,1.10
2022-09-11T12:46:28.044Z,0.98
2022-09-11T12:49:20.631Z,1.10
2022-09-11T12:51:54.262Z,1.00
2022-09-11T12:54:39.052Z,0.82
2022-09-11T12:57:09.417Z,0.85
2022-09-11T12:59:39.534Z,0.90
2022-09-11T13:02:24.799Z,1.10
2022-09-11T13:04:52.919Z,1.10
2022-09-11T13:07:26.832Z,1.10
2022-09-11T13:09:57.205Z,1.10
2022-09-11T13:12:24.744Z,1.23
2022-09-11T13:14:57.205Z,1.20
2022-09-11T13:17:33.024Z,1.42
2022-09-11T13:20:03.452Z,1.20
2022-09-11T13:22:31.892Z,1.00
2022-09-11T13:25:13.036Z,1.10
2022-09-11T13:27:45.659Z,1.08
2022-09-11T13:30:15.604Z,1.07
2022-09-11T13:32:44.848Z,0.90
2022-09-11T13:38:58.354Z,1.10
2022-09-11T13:41:59.174Z,1.10
2022-09-11T13:44:56.329Z,1.20
2022-09-11T13:48:21.404Z,1.30
2022-09-11T13:50:50.692Z,1.25
2022-09-11T13:53:19.405Z,1.40
2022-09-11T13:55:49.008Z,1.70
2022-09-11T13:58:32.876Z,1.45
2022-09-11T14:01:12.871Z,1.50
2022-09-11T14:03:47.855Z,1.60
2022-09-11T14:06:19.113Z,1.35
2022-09-11T14:08:56.143Z,1.30
2022-09-11T14:11:30.120Z,1.25
2022-09-11T14:14:05.106Z,1.20
2022-09-11T14:16:35.844Z,1.30
2022-09-11T14:19:11.035Z,1.20
2022-09-11T14:21:40.681Z,1.20
2022-09-11T14:24:33.493Z,1.08
2022-09-11T14:27:02.333Z,1.10
2022-09-11T14:29:32.241Z,1.02
2022-09-11T14:32:21.715Z,1.12
2022-09-11T14:34:49.374Z,1.20
2022-09-11T14:37:21.814Z,1.20
2022-09-11T14:39:56.832Z,1.20
2022-09-11T14:42:28.068Z,1.10
2022-09-11T14:44:56.150Z,1.00
2022-09-11T14:47:27.009Z,1.12
2022-09-11T14:49:56.032Z,1.00
2022-09-11T14:52:28.691Z,1.10
2022-09-11T14:54:59.771Z,1.10
2022-09-11T14:57:31.300Z,1.00
2022-09-11T14:59:59.629Z,1.10
2022-09-11T15:02:29.039Z,1.00
2022-09-11T15:04:57.852Z,1.08
2022-09-11T15:07:27.466Z,1.00
2022-09-11T15:09:55.529Z,1.10
2022-09-11T15:12:23.116Z,1.10
2022-09-11T15:14:59.277Z,1.00
2022-09-11T15:17:39.437Z,1.10
2022-09-11T15:20:12.113Z,0.90
2022-09-11T15:22:40.516Z,0.98
2022-09-11T15:25:08.555Z,1.00
2022-09-11T15:27:36.303Z,1.10
2022-09-11T15:30:05.132Z,0.93
2022-09-11T15:32:32.700Z,1.10
2022-09-11T15:35:00.261Z,1.20
2022-09-11T15:37:28.390Z,1.00
2022-09-11T15:39:55.941Z,1.10
2022-09-11T15:42:23.521Z,1.17
2022-09-11T15:44:51.968Z,1.00
2022-09-11T15:47:19.518Z,0.95
2022-09-11T15:49:49.724Z,1.23
2022-09-11T15:52:17.542Z,1.15
2022-09-11T15:54:45.636Z,1.45
2022-09-11T15:57:13.223Z,1.10
2022-09-11T15:59:40.973Z,1.15
2022-09-11T16:02:09.365Z,1.30
2022-09-11T16:04:37.016Z,1.30
2022-09-11T16:07:04.566Z,1.20
2022-09-11T16:09:32.503Z,1.17
2022-09-11T16:12:01.970Z,1.20
2022-09-11T16:14:32.828Z,1.20
2022-09-11T16:17:02.331Z,1.20
2022-09-11T16:19:30.204Z,1.23
2022-09-11T16:22:01.081Z,1.30
2022-09-11T16:24:30.192Z,1.12
2022-09-11T16:26:57.583Z,1.10
2022-09-11T16:29:44.018Z,1.20
2022-09-11T16:32:28.245Z,1.12
2022-09-11T16:34:57.270Z,1.25
2022-09-11T16:37:26.059Z,1.23
2022-09-11T16:39:53.733Z,1.10
2022-09-11T16:42:21.772Z,1.25
2022-09-11T16:44:49.877Z,1.27
2022-09-11T16:47:17.861Z,1.37
2022-09-11T16:50:05.791Z,1.20
2022-09-11T16:52:34.581Z,1.20
2022-09-11T16:55:01.987Z,1.40
2022-09-11T16:57:30.134Z,1.37
2022-09-11T16:59:57.818Z,1.10
2022-09-11T17:02:26.518Z,1.30
2022-09-11T17:04:53.861Z,1.40
2022-09-11T17:07:21.508Z,1.20
2022-09-11T17:09:48.843Z,1.40
2022-09-11T17:12:18.007Z,1.30
2022-09-11T17:14:45.660Z,1.50
2022-09-11T17:17:13.359Z,1.40
2022-09-11T17:19:40.819Z,1.40
2022-09-11T17:22:12.971Z,1.50
2022-09-11T17:24:40.513Z,1.33
2022-09-11T17:27:08.320Z,1.40
2022-09-11T17:29:35.911Z,1.50
2022-09-11T17:32:26.590Z,1.50
2022-09-11T17:34:51.712Z,1.52
2022-09-11T17:37:19.153Z,1.50
2022-09-11T17:39:47.042Z,1.62
2022-09-11T17:42:15.141Z,1.70
2022-09-11T17:44:43.495Z,2.00
2022-09-11T17:47:11.193Z,1.70
2022-09-11T17:49:39.206Z,1.60
2022-09-11T17:52:07.371Z,1.60
2022-09-11T17:54:35.033Z,1.60
2022-09-11T17:57:03.139Z,1.62
2022-09-11T17:59:30.700Z,1.50
2022-09-11T18:02:00.187Z,1.70
2022-09-11T18:04:28.506Z,1.70
2022-09-11T18:06:56.169Z,1.58
2022-09-11T18:09:24.488Z,1.73
2022-09-11T18:11:54.867Z,1.50
2022-09-11T18:14:23.269Z,1.70
2022-09-11T18:16:51.131Z,1.50
2022-09-11T18:19:22.448Z,1.50
2022-09-11T18:21:51.205Z,1.73
2022-09-11T18:24:21.014Z,1.60
2022-09-11T18:26:55.071Z,1.90
2022-09-11T18:29:25.798Z,1.60
2022-09-11T18:31:54.406Z,1.60
2022-09-11T18:34:25.396Z,1.70
2022-09-11T18:36:54.263Z,1.77
2022-09-11T18:39:22.275Z,1.67
2022-09-11T18:41:52.918Z,1.70
2022-09-11T18:44:23.017Z,1.47
2022-09-11T18:46:54.724Z,1.70
2022-09-11T18:49:23.451Z,1.60
2022-09-11T18:51:52.068Z,1.70
2022-09-11T18:54:21.364Z,1.60
2022-09-11T18:56:50.049Z,1.62
2022-09-11T18:59:18.536Z,1.70
2022-09-11T19:01:46.110Z,1.70
2022-09-11T19:04:15.008Z,1.60
2022-09-11T19:06:42.818Z,1.67
2022-09-11T19:09:12.610Z,1.48
2022-09-11T19:11:41.028Z,1.62
2022-09-11T19:14:10.752Z,1.50
2022-09-11T19:16:39.771Z,1.80
2022-09-11T19:19:08.220Z,1.80
2022-09-11T19:21:36.332Z,1.70
2022-09-11T19:24:04.704Z,1.77
2022-09-11T19:26:35.507Z,1.50
2022-09-11T19:29:03.132Z,1.70
2022-09-11T19:31:31.000Z,1.70
2022-09-11T19:34:03.053Z,1.73
2022-09-11T19:36:34.076Z,1.70
2022-09-11T19:39:04.432Z,1.87
2022-09-11T19:41:36.177Z,1.90
2022-09-11T19:44:06.123Z,1.70
2022-09-11T19:46:34.848Z,2.30
2022-09-11T19:49:04.037Z,1.90
2022-09-11T19:51:38.035Z,2.00
2022-09-11T19:54:06.744Z,1.90
2022-09-11T19:56:37.604Z,2.10
2022-09-11T19:59:06.959Z,2.08
2022-09-11T20:01:35.387Z,2.10
2022-09-11T20:04:03.979Z,2.10
2022-09-11T20:06:33.347Z,2.40
2022-09-11T20:11:50.150Z,2.47
2022-09-11T20:14:17.648Z,2.50
2022-09-11T20:16:45.407Z,2.30
2022-09-11T20:19:15.049Z,2.45
2022-09-11T20:21:43.386Z,2.25
2022-09-11T20:24:10.964Z,2.40
2022-09-11T20:26:38.763Z,2.50
2022-09-11T20:29:08.491Z,2.30
2022-09-11T20:31:46.322Z,2.50
2022-09-11T20:34:16.717Z,2.40
2022-09-11T20:36:51.676Z,2.42
2022-09-11T20:39:20.139Z,2.47
2022-09-11T20:41:47.843Z,2.40
2022-09-11T20:44:15.509Z,2.42
2022-09-11T20:46:47.590Z,2.60
2022-09-11T20:49:15.140Z,2.40
2022-09-11T20:51:43.150Z,2.60
2022-09-11T20:54:10.532Z,2.70
2022-09-11T20:56:38.002Z,2.55
2022-09-11T20:59:05.670Z,2.60
2022-09-11T21:01:33.326Z,2.67
2022-09-11T21:04:02.255Z,2.70
2022-09-11T21:06:31.592Z,2.70
2022-09-11T21:09:01.754Z,2.40
2022-09-11T21:11:30.603Z,2.85
2022-09-11T21:13:58.953Z,2.70
2022-09-11T21:16:26.628Z,2.90
2022-09-11T21:18:55.967Z,2.80
2022-09-11T21:21:24.449Z,2.90
2022-09-11T21:23:56.103Z,2.80
2022-09-11T21:26:26.194Z,2.78
2022-09-11T21:28:53.681Z,2.60
2022-09-11T21:31:21.114Z,2.80
2022-09-11T21:33:48.811Z,2.87
2022-09-11T21:36:16.276Z,3.00
2022-09-11T21:38:43.804Z,2.80
2022-09-11T21:41:13.266Z,2.90
2022-09-11T21:43:40.806Z,3.20
2022-09-11T21:46:08.999Z,3.00
2022-09-11T21:48:38.258Z,3.37
2022-09-11T21:51:16.616Z,3.35
2022-09-11T21:53:46.423Z,3.30
2022-09-11T21:56:25.470Z,3.47
2022-09-11T21:58:53.869Z,3.50
2022-09-11T22:01:22.791Z,3.80
2022-09-11T22:03:51.227Z,3.90
2022-09-11T22:06:20.418Z,3.55
2022-09-11T22:08:47.838Z,3.80
2022-09-11T22:11:16.584Z,4.00
2022-09-11T22:13:44.743Z,3.75
2022-09-11T22:16:15.673Z,3.58
2022-09-11T22:18:43.593Z,3.92
2022-09-11T22:21:11.032Z,3.65
2022-09-11T22:23:38.451Z,4.20
2022-09-11T22:26:08.301Z,4.10
2022-09-11T22:28:37.259Z,4.17
2022-09-11T22:31:13.524Z,4.00
2022-09-11T22:33:42.045Z,4.12
2022-09-11T22:36:21.005Z,3.85
2022-09-11T22:38:48.778Z,4.05
2022-09-11T22:41:16.786Z,4.47
2022-09-11T22:43:44.806Z,4.30
2022-09-11T22:46:12.648Z,4.50
2022-09-11T22:48:40.125Z,4.28
2022-09-11T22:51:08.395Z,4.10
2022-09-11T22:53:36.095Z,4.00
2022-09-11T22:56:03.456Z,4.30
2022-09-11T22:58:31.108Z,4.10
2022-09-11T23:01:00.801Z,4.22
2022-09-11T23:03:28.237Z,4.23
2022-09-11T23:06:15.783Z,4.15
2022-09-11T23:08:45.629Z,4.45
2022-09-11T23:11:19.615Z,4.45
2022-09-11T23:13:48.624Z,4.35
2022-09-11T23:16:20.105Z,4.15
2022-09-11T23:18:48.512Z,4.70
2022-09-11T23:21:15.897Z,4.22
2022-09-11T23:23:44.886Z,4.73
2022-09-11T23:26:13.872Z,4.40
2022-09-11T23:28:41.793Z,4.43
2022-09-11T23:31:28.766Z,4.43
2022-09-11T23:33:59.269Z,4.30
2022-09-11T23:36:27.520Z,4.30
2022-09-11T23:38:55.037Z,4.40
2022-09-11T23:41:22.827Z,4.50
2022-09-11T23:43:50.323Z,4.50
2022-09-11T23:46:18.031Z,4.15
2022-09-11T23:48:46.177Z,4.40
2022-09-11T23:51:13.763Z,4.20
2022-09-11T23:53:44.905Z,4.35
2022-09-11T23:56:14.524Z,4.47
2022-09-11T23:58:42.585Z,4.18
